Time;durP1;ratioP1;P1;durP2;ratioP2;P2;SDS_P1;SDS_P2;PMS_P1;PMS_P2;Temp;Humidity;BMP_temperature;BMP_pressure;BME280_temperature;BME280_humidity;BME280_pressure;Samples;Min_cycle;Max_cycle;Signal;HPM_P1;HPM_P2
2023/12/20 00:01:00;;;;;;;9.77;6.22;;;;;;;;;;7376489;19;20134;-79
2023/12/20 00:03:26;;;;;;;10.45;6.88;;;;;;;;;;7374319;19;20010;-79
2023/12/20 00:05:51;;;;;;;9.10;5.85;;;;;;;;;;7375400;19;20007;-80
2023/12/20 00:08:16;;;;;;;9.18;6.03;;;;;;;;;;7399088;19;20026;-79
2023/12/20 00:10:43;;;;;;;8.80;6.07;;;;;;;;;;7375453;19;20397;-78
2023/12/20 00:13:09;;;;;;;9.48;6.13;;;;;;;;;;7376002;19;20010;-79
2023/12/20 00:15:35;;;;;;;9.52;5.65;;;;;;;;;;7375126;19;20010;-79
2023/12/20 00:18:00;;;;;;;10.80;6.65;;;;;;;;;;7375439;19;19999;-79
2023/12/20 00:20:26;;;;;;;10.90;6.18;;;;;;;;;;7397035;19;20016;-79
2023/12/20 00:22:52;;;;;;;9.23;5.80;;;;;;;;;;7378227;19;20017;-79
2023/12/20 00:25:17;;;;;;;11.55;6.05;;;;;;;;;;7375465;19;20429;-79
2023/12/20 00:27:43;;;;;;;9.48;6.32;;;;;;;;;;7373944;19;20499;-78
2023/12/20 00:30:09;;;;;;;8.68;5.68;;;;;;;;;;7377159;19;20489;-79
2023/12/20 00:32:35;;;;;;;9.57;5.25;;;;;;;;;;7399798;19;20133;-79
2023/12/20 00:35:01;;;;;;;10.07;5.72;;;;;;;;;;7375076;19;20010;-78
2023/12/20 00:37:26;;;;;;;9.45;5.20;;;;;;;;;;7375829;19;20023;-79
2023/12/20 00:39:51;;;;;;;8.98;5.68;;;;;;;;;;7379071;19;20047;-78
2023/12/20 00:42:17;;;;;;;9.05;5.60;;;;;;;;;;7381823;19;20094;-78
2023/12/20 00:44:42;;;;;;;9.77;5.50;;;;;;;;;;7405738;19;19999;-79
2023/12/20 00:47:07;;;;;;;8.95;5.72;;;;;;;;;;7379710;19;20007;-78
2023/12/20 00:49:33;;;;;;;7.22;4.68;;;;;;;;;;7374329;19;20010;-79
2023/12/20 00:51:58;;;;;;;7.72;5.00;;;;;;;;;;7374711;19;20018;-80
2023/12/20 00:54:23;;;;;;;11.15;5.70;;;;;;;;;;7372053;19;20022;-79
2023/12/20 00:56:49;;;;;;;7.43;4.95;;;;;;;;;;7377366;19;20005;-78
2023/12/20 00:59:16;;;;;;;9.50;5.72;;;;;;;;;;7397804;19;20002;-79
2023/12/20 01:01:42;;;;;;;8.13;5.53;;;;;;;;;;7376871;19;20074;-79
2023/12/20 01:04:07;;;;;;;7.65;5.13;;;;;;;;;;7374962;19;20477;-79
2023/12/20 01:06:32;;;;;;;8.48;5.10;;;;;;;;;;7392339;19;20010;-79
2023/12/20 01:08:58;;;;;;;9.48;5.55;;;;;;;;;;7391297;19;20003;-79
2023/12/20 01:11:23;;;;;;;10.77;5.20;;;;;;;;;;7398846;19;20390;-78
2023/12/20 01:13:48;;;;;;;8.15;4.90;;;;;;;;;;7376503;19;20003;-78
2023/12/20 01:16:15;;;;;;;8.05;4.97;;;;;;;;;;7388167;19;20013;-79
2023/12/20 01:18:40;;;;;;;9.23;4.88;;;;;;;;;;7390301;19;20026;-79
2023/12/20 01:21:05;;;;;;;7.07;4.60;;;;;;;;;;7388249;19;21270;-79
2023/12/20 01:23:32;;;;;;;9.02;4.93;;;;;;;;;;7396340;19;20444;-81
2023/12/20 01:25:59;;;;;;;8.75;4.85;;;;;;;;;;7375149;19;20014;-79
2023/12/20 01:28:25;;;;;;;7.43;4.82;;;;;;;;;;7376317;19;20036;-79
2023/12/20 01:30:50;;;;;;;7.53;5.03;;;;;;;;;;7377265;19;20011;-79
2023/12/20 01:33:16;;;;;;;6.95;4.22;;;;;;;;;;7374228;19;20102;-79
2023/12/20 01:35:41;;;;;;;7.38;4.60;;;;;;;;;;7396832;19;20002;-79
2023/12/20 01:38:06;;;;;;;6.93;3.95;;;;;;;;;;7376495;19;20106;-79
2023/12/20 01:40:32;;;;;;;7.78;4.55;;;;;;;;;;7382452;19;20007;-79
2023/12/20 01:43:08;;;;;;;7.90;4.78;;;;;;;;;;7381987;19;20030;-79
2023/12/20 01:45:34;;;;;;;7.28;4.53;;;;;;;;;;7380413;19;20030;-79
2023/12/20 01:48:01;;;;;;;7.43;4.38;;;;;;;;;;7381139;19;20479;-79
2023/12/20 01:50:27;;;;;;;6.68;4.30;;;;;;;;;;7404953;19;20196;-79
2023/12/20 01:52:57;;;;;;;7.55;4.03;;;;;;;;;;7381004;19;20010;-81
2023/12/20 01:55:23;;;;;;;6.70;4.07;;;;;;;;;;7387185;19;20007;-79
2023/12/20 01:57:48;;;;;;;7.10;4.00;;;;;;;;;;7387669;19;20009;-79
2023/12/20 02:00:14;;;;;;;6.68;3.67;;;;;;;;;;7384664;19;20018;-79
2023/12/20 02:02:40;;;;;;;7.05;3.83;;;;;;;;;;7402698;19;20050;-80
2023/12/20 02:05:09;;;;;;;6.00;3.70;;;;;;;;;;7380908;19;20010;-78
2023/12/20 02:07:35;;;;;;;6.47;3.67;;;;;;;;;;7377493;19;20006;-80
2023/12/20 02:10:04;;;;;;;6.57;3.40;;;;;;;;;;7376781;19;20469;-79
2023/12/20 02:12:30;;;;;;;5.38;3.72;;;;;;;;;;7375249;19;20006;-81
2023/12/20 02:14:55;;;;;;;5.35;3.00;;;;;;;;;;7377355;19;20013;-79
2023/12/20 02:17:22;;;;;;;6.53;3.83;;;;;;;;;;7402260;19;20003;-79
2023/12/20 02:19:47;;;;;;;5.43;3.38;;;;;;;;;;7379393;19;20010;-79
2023/12/20 02:22:12;;;;;;;5.65;3.35;;;;;;;;;;7375075;19;20107;-79
2023/12/20 02:24:38;;;;;;;5.32;3.08;;;;;;;;;;7374228;19;20359;-78
2023/12/20 02:27:06;;;;;;;5.28;3.10;;;;;;;;;;7371696;19;20404;-79
2023/12/20 02:29:33;;;;;;;6.18;3.28;;;;;;;;;;7394858;19;20006;-80
2023/12/20 02:31:58;;;;;;;5.35;3.08;;;;;;;;;;7371756;19;20429;-80
2023/12/20 02:34:23;;;;;;;6.45;3.30;;;;;;;;;;7371561;19;20010;-78
2023/12/20 02:36:48;;;;;;;5.55;3.05;;;;;;;;;;7372682;19;20029;-80
2023/12/20 02:39:14;;;;;;;5.45;3.10;;;;;;;;;;7372133;19;20006;-80
2023/12/20 02:41:39;;;;;;;6.13;3.35;;;;;;;;;;7395669;19;20002;-78
2023/12/20 02:44:04;;;;;;;5.10;3.13;;;;;;;;;;7371657;19;20089;-79
2023/12/20 02:46:30;;;;;;;6.22;3.33;;;;;;;;;;7373290;19;20075;-79
2023/12/20 02:48:55;;;;;;;5.57;3.05;;;;;;;;;;7380661;19;20007;-80
2023/12/20 02:51:20;;;;;;;6.35;3.28;;;;;;;;;;7377459;19;20028;-80
2023/12/20 02:53:46;;;;;;;5.43;3.08;;;;;;;;;;7378207;19;20595;-79
2023/12/20 02:56:11;;;;;;;5.40;3.30;;;;;;;;;;7393375;19;19995;-79
2023/12/20 02:58:36;;;;;;;4.78;2.40;;;;;;;;;;7373324;19;20014;-78
2023/12/20 03:01:02;;;;;;;4.97;2.50;;;;;;;;;;7371293;19;20377;-79
2023/12/20 03:03:27;;;;;;;4.03;2.45;;;;;;;;;;7369450;19;20433;-79
2023/12/20 03:05:52;;;;;;;4.63;2.40;;;;;;;;;;7369186;19;20035;-80
2023/12/20 03:08:18;;;;;;;3.88;2.40;;;;;;;;;;7388586;19;20476;-80
2023/12/20 03:10:43;;;;;;;4.65;2.47;;;;;;;;;;7366919;19;20010;-80
2023/12/20 03:13:09;;;;;;;3.80;2.42;;;;;;;;;;7366754;19;20014;-79
2023/12/20 03:15:34;;;;;;;3.67;2.30;;;;;;;;;;7367869;19;20036;-79
2023/12/20 03:17:59;;;;;;;4.40;2.38;;;;;;;;;;7366885;19;20063;-79
2023/12/20 03:20:26;;;;;;;3.45;2.25;;;;;;;;;;7391418;19;20014;-79
2023/12/20 03:22:51;;;;;;;4.45;2.50;;;;;;;;;;7398641;19;20006;-79
2023/12/20 03:25:17;;;;;;;3.58;2.10;;;;;;;;;;7383386;19;20354;-79
2023/12/20 03:27:42;;;;;;;4.18;2.30;;;;;;;;;;7371282;19;20418;-79
2023/12/20 03:30:08;;;;;;;4.13;2.50;;;;;;;;;;7371752;19;20090;-79
2023/12/20 03:32:33;;;;;;;3.67;2.30;;;;;;;;;;7393015;19;20015;-79
2023/12/20 03:34:58;;;;;;;4.25;2.42;;;;;;;;;;7371990;19;20518;-79
2023/12/20 03:37:24;;;;;;;4.63;2.42;;;;;;;;;;7369839;19;20616;-79
2023/12/20 03:39:49;;;;;;;3.95;2.47;;;;;;;;;;7371928;19;20131;-79
2023/12/20 03:42:15;;;;;;;4.88;2.85;;;;;;;;;;7377955;19;20014;-78
2023/12/20 03:44:40;;;;;;;4.90;2.72;;;;;;;;;;7397678;19;20459;-78
2023/12/20 03:47:06;;;;;;;5.30;2.65;;;;;;;;;;7374430;19;20003;-80
2023/12/20 03:49:31;;;;;;;5.32;2.60;;;;;;;;;;7374361;19;20013;-78
2023/12/20 03:51:57;;;;;;;4.30;2.33;;;;;;;;;;7374136;19;20018;-80
2023/12/20 03:54:22;;;;;;;3.92;2.25;;;;;;;;;;7374342;19;20107;-78
2023/12/20 03:56:48;;;;;;;4.05;1.85;;;;;;;;;;7376279;19;20047;-79
2023/12/20 03:59:13;;;;;;;3.15;2.20;;;;;;;;;;7396393;19;20116;-80
2023/12/20 04:01:43;;;;;;;2.88;1.85;;;;;;;;;;7373626;19;20013;-78
2023/12/20 04:04:08;;;;;;;2.80;1.80;;;;;;;;;;7372432;19;20011;-78
2023/12/20 04:06:34;;;;;;;2.40;1.73;;;;;;;;;;7375329;19;20010;-79
2023/12/20 04:08:59;;;;;;;14.10;2.15;;;;;;;;;;7374475;19;20003;-78
2023/12/20 04:11:25;;;;;;;2.92;1.70;;;;;;;;;;7396795;19;20093;-78
2023/12/20 04:13:50;;;;;;;3.75;2.05;;;;;;;;;;7372133;19;20002;-78
2023/12/20 04:16:15;;;;;;;3.90;1.83;;;;;;;;;;7374847;19;20014;-78
2023/12/20 04:18:41;;;;;;;3.30;1.83;;;;;;;;;;7376300;19;20903;-79
2023/12/20 04:21:07;;;;;;;3.92;1.90;;;;;;;;;;7376343;19;20085;-79
2023/12/20 04:23:32;;;;;;;3.38;1.90;;;;;;;;;;7396454;19;20007;-79
2023/12/20 04:25:57;;;;;;;3.40;2.00;;;;;;;;;;7375017;19;20014;-79
2023/12/20 04:28:23;;;;;;;3.60;2.03;;;;;;;;;;7379812;19;20036;-79
2023/12/20 04:30:48;;;;;;;3.33;2.00;;;;;;;;;;7379313;19;20011;-79
2023/12/20 04:33:13;;;;;;;4.30;2.13;;;;;;;;;;7375017;19;20074;-79
2023/12/20 04:35:40;;;;;;;4.47;2.42;;;;;;;;;;7397594;19;20014;-82
2023/12/20 04:38:06;;;;;;;3.97;2.30;;;;;;;;;;7375499;19;20014;-79
2023/12/20 04:40:31;;;;;;;4.18;2.40;;;;;;;;;;7379793;19;20002;-79
2023/12/20 04:42:56;;;;;;;5.68;2.88;;;;;;;;;;7374690;19;20051;-82
2023/12/20 04:45:23;;;;;;;3.83;2.38;;;;;;;;;;7370871;19;20011;-78
2023/12/20 04:47:48;;;;;;;4.45;2.33;;;;;;;;;;7373903;19;20031;-80
2023/12/20 04:50:14;;;;;;;4.78;2.30;;;;;;;;;;7394747;19;20012;-78
2023/12/20 04:52:39;;;;;;;3.15;2.10;;;;;;;;;;7367445;19;20116;-78
2023/12/20 04:55:05;;;;;;;3.85;2.20;;;;;;;;;;7374026;19;20002;-78
2023/12/20 04:57:30;;;;;;;6.05;2.50;;;;;;;;;;7382283;19;20002;-78
2023/12/20 04:59:56;;;;;;;5.25;2.13;;;;;;;;;;7383969;19;20017;-78
2023/12/20 05:02:21;;;;;;;4.15;2.40;;;;;;;;;;7394373;19;20034;-77
2023/12/20 05:04:46;;;;;;;5.90;2.70;;;;;;;;;;7370194;19;20108;-79
2023/12/20 05:07:12;;;;;;;8.07;2.53;;;;;;;;;;7371833;19;20598;-78
2023/12/20 05:09:37;;;;;;;4.78;2.10;;;;;;;;;;7371858;19;20438;-79
2023/12/20 05:12:03;;;;;;;3.97;2.03;;;;;;;;;;7372407;19;20253;-78
2023/12/20 05:14:28;;;;;;;5.63;2.40;;;;;;;;;;7393890;19;20014;-78
2023/12/20 05:16:53;;;;;;;10.88;2.40;;;;;;;;;;7371291;19;20465;-78
2023/12/20 05:19:19;;;;;;;5.05;2.20;;;;;;;;;;7369748;19;20068;-78
2023/12/20 05:21:44;;;;;;;6.30;2.15;;;;;;;;;;7369928;19;20009;-78
2023/12/20 05:24:09;;;;;;;5.53;2.10;;;;;;;;;;7370384;19;20010;-80
2023/12/20 05:26:35;;;;;;;4.43;1.73;;;;;;;;;;7391329;19;20014;-78
2023/12/20 05:29:00;;;;;;;7.28;2.00;;;;;;;;;;7370774;19;20018;-78
2023/12/20 05:31:25;;;;;;;8.07;2.15;;;;;;;;;;7369667;19;20014;-77
2023/12/20 05:33:51;;;;;;;6.70;2.38;;;;;;;;;;7369107;19;20011;-77
2023/12/20 05:36:16;;;;;;;6.38;2.00;;;;;;;;;;7376538;19;20038;-78
2023/12/20 05:38:41;;;;;;;6.95;2.20;;;;;;;;;;7407949;19;20010;-77
2023/12/20 05:41:07;;;;;;;7.07;2.10;;;;;;;;;;7371236;19;20482;-77
2023/12/20 05:43:32;;;;;;;7.25;1.92;;;;;;;;;;7366059;19;20017;-78
2023/12/20 05:45:58;;;;;;;6.13;1.98;;;;;;;;;;7369783;19;20082;-77
2023/12/20 05:48:23;;;;;;;5.70;2.38;;;;;;;;;;7366665;19;20367;-77
2023/12/20 05:50:49;;;;;;;6.25;2.17;;;;;;;;;;7368267;19;20013;-77
2023/12/20 05:53:14;;;;;;;5.05;1.90;;;;;;;;;;7386675;19;20015;-79
2023/12/20 05:55:40;;;;;;;7.72;2.47;;;;;;;;;;7367450;19;20010;-78
2023/12/20 05:58:05;;;;;;;5.82;2.15;;;;;;;;;;7369975;19;20347;-77
2023/12/20 06:00:30;;;;;;;7.57;2.10;;;;;;;;;;7372168;19;20003;-78
2023/12/20 06:02:56;;;;;;;7.40;2.67;;;;;;;;;;7370463;19;20009;-76
2023/12/20 06:05:21;;;;;;;9.93;2.47;;;;;;;;;;7389768;19;20009;-77
2023/12/20 06:07:48;;;;;;;7.15;2.38;;;;;;;;;;7366056;19;20007;-76
2023/12/20 06:10:13;;;;;;;6.72;2.53;;;;;;;;;;7364864;19;20018;-77
2023/12/20 06:12:39;;;;;;;6.47;2.38;;;;;;;;;;7365955;19;20027;-77
2023/12/20 06:15:05;;;;;;;9.02;2.78;;;;;;;;;;7364084;19;20027;-76
2023/12/20 06:17:31;;;;;;;6.40;2.30;;;;;;;;;;7386204;19;20003;-78
2023/12/20 06:19:56;;;;;;;6.97;2.70;;;;;;;;;;7365185;19;20010;-76
2023/12/20 06:22:22;;;;;;;7.15;2.40;;;;;;;;;;7364986;19;20032;-77
2023/12/20 06:24:47;;;;;;;6.95;2.65;;;;;;;;;;7363228;19;20039;-77
2023/12/20 06:27:13;;;;;;;10.18;2.50;;;;;;;;;;7364434;19;20003;-77
2023/12/20 06:29:38;;;;;;;10.25;2.83;;;;;;;;;;7384081;19;20024;-76
2023/12/20 06:32:04;;;;;;;9.32;2.58;;;;;;;;;;7367770;19;20003;-76
2023/12/20 06:34:29;;;;;;;10.27;2.45;;;;;;;;;;7376401;19;20006;-76
2023/12/20 06:36:54;;;;;;;8.48;2.70;;;;;;;;;;7374742;19;20036;-77
2023/12/20 06:39:20;;;;;;;4.80;2.30;;;;;;;;;;7375444;19;20011;-77
2023/12/20 06:41:45;;;;;;;10.25;2.63;;;;;;;;;;7376950;19;20458;-77
2023/12/20 06:44:10;;;;;;;9.23;2.45;;;;;;;;;;7379648;19;20345;-78
2023/12/20 06:46:36;;;;;;;5.50;2.22;;;;;;;;;;7357878;19;20015;-78
2023/12/20 06:49:01;;;;;;;6.82;2.63;;;;;;;;;;7359861;19;20006;-77
2023/12/20 06:51:26;;;;;;;7.57;2.55;;;;;;;;;;7358607;19;20010;-77
2023/12/20 06:53:52;;;;;;;9.55;3.13;;;;;;;;;;7361037;19;20214;-77
2023/12/20 06:56:17;;;;;;;5.88;2.63;;;;;;;;;;7377411;19;20149;-77
2023/12/20 06:58:43;;;;;;;8.48;2.85;;;;;;;;;;7361144;19;20015;-77
2023/12/20 07:01:15;;;;;;;8.13;2.40;;;;;;;;;;7363397;19;20013;-76
2023/12/20 07:03:40;;;;;;;5.78;2.20;;;;;;;;;;7362295;19;20033;-76
2023/12/20 07:06:06;;;;;;;6.00;2.78;;;;;;;;;;7357222;19;21259;-76
2023/12/20 07:08:31;;;;;;;7.28;2.58;;;;;;;;;;7380787;19;20555;-77
2023/12/20 07:10:57;;;;;;;6.20;2.72;;;;;;;;;;7362342;19;20014;-77
2023/12/20 07:13:22;;;;;;;7.97;2.88;;;;;;;;;;7362548;19;20007;-77
2023/12/20 07:15:48;;;;;;;9.02;2.60;;;;;;;;;;7367246;19;20420;-77
2023/12/20 07:18:13;;;;;;;7.32;2.40;;;;;;;;;;7373056;19;20130;-77
2023/12/20 07:20:39;;;;;;;7.97;2.70;;;;;;;;;;7397963;19;20125;-78
2023/12/20 07:23:04;;;;;;;4.80;2.40;;;;;;;;;;7375291;19;20014;-76
2023/12/20 07:25:32;;;;;;;9.32;2.47;;;;;;;;;;7376952;19;20022;-76
2023/12/20 07:27:57;;;;;;;9.00;2.63;;;;;;;;;;7373857;19;20382;-76
2023/12/20 07:30:23;;;;;;;6.65;2.30;;;;;;;;;;7370337;19;20290;-77
2023/12/20 07:32:48;;;;;;;8.80;2.40;;;;;;;;;;7372217;19;20022;-79
2023/12/20 07:35:14;;;;;;;13.25;2.67;;;;;;;;;;7399324;19;20434;-78
2023/12/20 07:37:40;;;;;;;6.22;2.17;;;;;;;;;;7376501;19;20017;-76
2023/12/20 07:40:06;;;;;;;5.20;2.20;;;;;;;;;;7374700;19;20345;-77
2023/12/20 07:42:34;;;;;;;5.10;2.20;;;;;;;;;;7371755;19;20018;-78
2023/12/20 07:45:00;;;;;;;6.90;2.10;;;;;;;;;;7373281;19;20552;-78
2023/12/20 07:47:25;;;;;;;8.27;2.40;;;;;;;;;;7393694;19;20015;-76
2023/12/20 07:49:53;;;;;;;4.07;2.17;;;;;;;;;;7369757;19;20006;-78
2023/12/20 07:52:19;;;;;;;9.40;2.40;;;;;;;;;;7374371;19;20002;-76
2023/12/20 07:54:45;;;;;;;7.72;2.08;;;;;;;;;;7375919;19;20014;-77
2023/12/20 07:57:11;;;;;;;7.15;2.40;;;;;;;;;;7364047;19;20399;-77
2023/12/20 07:59:36;;;;;;;7.78;2.33;;;;;;;;;;7392684;19;20026;-77
2023/12/20 08:02:02;;;;;;;9.10;2.60;;;;;;;;;;7371890;19;20560;-79
2023/12/20 08:04:27;;;;;;;4.45;2.65;;;;;;;;;;7373732;19;20130;-76
2023/12/20 08:06:52;;;;;;;10.32;2.30;;;;;;;;;;7371248;19;20006;-77
2023/12/20 08:09:19;;;;;;;9.32;2.60;;;;;;;;;;7369537;19;20017;-77
2023/12/20 08:11:48;;;;;;;9.43;2.30;;;;;;;;;;7390831;19;20014;-76
2023/12/20 08:14:14;;;;;;;7.97;1.80;;;;;;;;;;7392685;19;20401;-77
2023/12/20 08:16:39;;;;;;;9.25;2.10;;;;;;;;;;7370416;19;20030;-76
2023/12/20 08:19:04;;;;;;;12.00;2.60;;;;;;;;;;7371502;19;20007;-76
2023/12/20 08:21:30;;;;;;;6.10;1.90;;;;;;;;;;7369688;19;20010;-76
2023/12/20 08:23:55;;;;;;;7.40;2.00;;;;;;;;;;7367901;19;20041;-76
2023/12/20 08:26:22;;;;;;;11.13;2.10;;;;;;;;;;7390214;19;20002;-77
2023/12/20 08:28:48;;;;;;;10.15;2.38;;;;;;;;;;7368990;19;20018;-77
2023/12/20 08:31:15;;;;;;;5.50;1.85;;;;;;;;;;7369476;19;20006;-76
2023/12/20 08:33:40;;;;;;;6.95;2.35;;;;;;;;;;7369024;19;20381;-76
2023/12/20 08:36:06;;;;;;;3.92;1.75;;;;;;;;;;7368428;19;20014;-76
2023/12/20 08:38:31;;;;;;;9.38;2.03;;;;;;;;;;7390095;19;20013;-77
2023/12/20 08:40:56;;;;;;;8.68;2.30;;;;;;;;;;7368913;19;20885;-76
2023/12/20 08:43:22;;;;;;;6.32;1.92;;;;;;;;;;7367412;19;20528;-76
2023/12/20 08:45:47;;;;;;;10.13;2.60;;;;;;;;;;7368275;19;20011;-76
2023/12/20 08:48:12;;;;;;;6.75;1.80;;;;;;;;;;7366777;19;20035;-76
2023/12/20 08:50:38;;;;;;;6.15;2.08;;;;;;;;;;7392227;19;20031;-76
2023/12/20 08:53:04;;;;;;;8.43;2.30;;;;;;;;;;7365458;19;20006;-76
2023/12/20 08:55:30;;;;;;;8.98;2.13;;;;;;;;;;7365155;19;20017;-75
2023/12/20 08:57:56;;;;;;;7.38;2.33;;;;;;;;;;7362545;19;20074;-76
2023/12/20 09:00:24;;;;;;;8.60;2.03;;;;;;;;;;7362775;19;20006;-76
2023/12/20 09:02:49;;;;;;;7.32;2.20;;;;;;;;;;7363667;19;20015;-77
2023/12/20 09:05:15;;;;;;;5.82;2.13;;;;;;;;;;7391155;19;20527;-77
2023/12/20 09:07:40;;;;;;;7.18;2.20;;;;;;;;;;7361599;19;20073;-77
2023/12/20 09:10:06;;;;;;;7.72;2.45;;;;;;;;;;7363753;19;20382;-77
2023/12/20 09:12:31;;;;;;;6.60;2.13;;;;;;;;;;7366826;19;20002;-77
2023/12/20 09:14:57;;;;;;;9.50;2.80;;;;;;;;;;7368144;19;20066;-76
2023/12/20 09:17:22;;;;;;;5.45;1.80;;;;;;;;;;7388583;19;20460;-77
2023/12/20 09:19:48;;;;;;;11.15;2.50;;;;;;;;;;7367361;19;20003;-76
2023/12/20 09:22:14;;;;;;;7.57;2.00;;;;;;;;;;7369169;19;20006;-77
2023/12/20 09:24:39;;;;;;;8.15;2.60;;;;;;;;;;7367425;19;20014;-76
2023/12/20 09:27:07;;;;;;;7.55;2.38;;;;;;;;;;7368049;19;20494;-77
2023/12/20 09:29:33;;;;;;;6.82;2.35;;;;;;;;;;7388130;19;20377;-77
2023/12/20 09:31:58;;;;;;;8.20;2.47;;;;;;;;;;7367708;19;20014;-77
2023/12/20 09:34:25;;;;;;;7.13;2.55;;;;;;;;;;7367980;19;20077;-77
2023/12/20 09:36:51;;;;;;;8.68;2.70;;;;;;;;;;7370758;19;20020;-77
2023/12/20 09:39:20;;;;;;;10.38;2.40;;;;;;;;;;7367626;19;19998;-75
2023/12/20 09:41:53;;;;;;;9.15;2.28;;;;;;;;;;7375860;19;20013;-76
2023/12/20 09:44:18;;;;;;;8.48;2.65;;;;;;;;;;7387645;19;20746;-77
2023/12/20 09:46:45;;;;;;;13.32;2.70;;;;;;;;;;7369303;19;20130;-77
2023/12/20 09:49:12;;;;;;;9.52;2.47;;;;;;;;;;7369477;19;19994;-76
2023/12/20 09:51:37;;;;;;;7.28;2.22;;;;;;;;;;7370074;19;20005;-76
2023/12/20 09:54:04;;;;;;;10.80;2.28;;;;;;;;;;7365362;19;20007;-77
2023/12/20 09:56:30;;;;;;;9.32;2.28;;;;;;;;;;7389243;19;20024;-77
2023/12/20 09:58:55;;;;;;;11.18;2.72;;;;;;;;;;7367314;19;20002;-77
2023/12/20 10:01:21;;;;;;;5.90;2.10;;;;;;;;;;7366741;19;20760;-76
2023/12/20 10:03:46;;;;;;;10.93;2.53;;;;;;;;;;7366753;19;20342;-78
2023/12/20 10:06:12;;;;;;;4.95;2.13;;;;;;;;;;7368056;19;20027;-76
2023/12/20 10:08:38;;;;;;;7.47;2.38;;;;;;;;;;7398995;19;20452;-76
2023/12/20 10:11:05;;;;;;;10.55;2.17;;;;;;;;;;7375465;19;20011;-76
2023/12/20 10:13:30;;;;;;;9.80;2.25;;;;;;;;;;7374000;19;20006;-76
2023/12/20 10:15:56;;;;;;;9.05;2.47;;;;;;;;;;7373695;19;20007;-76
2023/12/20 10:18:21;;;;;;;7.47;2.40;;;;;;;;;;7371064;19;20006;-77
2023/12/20 10:20:47;;;;;;;6.95;2.72;;;;;;;;;;7367570;19;20003;-77
2023/12/20 10:23:13;;;;;;;9.95;2.78;;;;;;;;;;7388064;19;19995;-75
2023/12/20 10:25:39;;;;;;;7.40;2.20;;;;;;;;;;7365086;19;20583;-77
2023/12/20 10:28:10;;;;;;;9.43;2.10;;;;;;;;;;7365371;19;20371;-75
2023/12/20 10:30:35;;;;;;;8.07;2.50;;;;;;;;;;7365941;19;20010;-76
2023/12/20 10:33:01;;;;;;;6.70;1.90;;;;;;;;;;7364477;19;20009;-76
2023/12/20 10:35:26;;;;;;;7.90;2.15;;;;;;;;;;7389613;19;19991;-75
2023/12/20 10:37:56;;;;;;;10.15;2.28;;;;;;;;;;7364167;19;19998;-77
2023/12/20 10:40:22;;;;;;;10.82;2.38;;;;;;;;;;7364085;19;19998;-76
2023/12/20 10:42:49;;;;;;;5.60;2.00;;;;;;;;;;7365279;19;20002;-77
2023/12/20 10:45:15;;;;;;;7.18;2.25;;;;;;;;;;7365795;19;20456;-77
2023/12/20 10:47:42;;;;;;;5.95;1.80;;;;;;;;;;7387702;19;20013;-76
2023/12/20 10:50:08;;;;;;;8.63;2.50;;;;;;;;;;7366903;19;20013;-77
2023/12/20 10:52:34;;;;;;;6.97;2.30;;;;;;;;;;7371162;19;20161;-76
2023/12/20 10:55:00;;;;;;;6.43;2.00;;;;;;;;;;7372254;19;20473;-75
2023/12/20 10:57:27;;;;;;;5.50;2.20;;;;;;;;;;7369686;19;20002;-76
2023/12/20 10:59:54;;;;;;;8.43;1.90;;;;;;;;;;7367293;19;20023;-76
2023/12/20 11:02:21;;;;;;;6.50;1.90;;;;;;;;;;7391274;19;20044;-76
2023/12/20 11:05:09;;;;;;;10.70;2.35;;;;;;;;;;7369626;19;20508;-77
2023/12/20 11:07:40;;;;;;;7.78;2.42;;;;;;;;;;7372174;19;20062;-75
2023/12/20 11:10:26;;;;;;;5.60;2.35;;;;;;;;;;7370144;19;20003;-75
2023/12/20 11:12:57;;;;;;;10.85;2.63;;;;;;;;;;7370022;19;20042;-75
2023/12/20 11:15:24;;;;;;;;;;;;;;;;;;7371192;19;20013;-75
2023/12/20 11:17:58;;;;;;;8.00;2.28;;;;;;;;;;7371073;19;20954;-75
2023/12/20 11:20:24;;;;;;;6.72;2.10;;;;;;;;;;7391534;19;20013;-76
2023/12/20 11:22:56;;;;;;;8.18;2.35;;;;;;;;;;7374877;19;20034;-76
2023/12/20 11:25:21;;;;;;;8.85;2.10;;;;;;;;;;7379494;19;20015;-76
2023/12/20 11:28:09;;;;;;;6.72;2.22;;;;;;;;;;7368334;19;20509;-76
2023/12/20 11:30:47;;;;;;;7.85;2.30;;;;;;;;;;7367973;19;20006;-76
2023/12/20 11:33:16;;;;;;;6.88;2.03;;;;;;;;;;7367828;19;20007;-76
2023/12/20 11:35:41;;;;;;;5.10;1.90;;;;;;;;;;7392446;19;20006;-76
2023/12/20 11:38:10;;;;;;;8.55;2.30;;;;;;;;;;7368366;19;20003;-75
2023/12/20 11:40:37;;;;;;;6.32;2.00;;;;;;;;;;7369031;19;20457;-75
2023/12/20 11:43:04;;;;;;;10.70;2.17;;;;;;;;;;7370737;19;19998;-75
2023/12/20 11:45:30;;;;;;;7.72;2.22;;;;;;;;;;7369347;19;20070;-75
2023/12/20 11:47:57;;;;;;;11.82;2.40;;;;;;;;;;7372642;19;20449;-75
2023/12/20 11:50:23;;;;;;;7.22;2.20;;;;;;;;;;7389118;19;20002;-75
2023/12/20 11:52:52;;;;;;;11.80;2.28;;;;;;;;;;7368050;19;20007;-75
2023/12/20 11:55:17;;;;;;;11.80;2.00;;;;;;;;;;7368856;19;20003;-75
2023/12/20 11:57:44;;;;;;;6.57;2.03;;;;;;;;;;7369750;19;20022;-75
2023/12/20 12:00:10;;;;;;;8.95;2.25;;;;;;;;;;7369363;19;20538;-75
2023/12/20 12:02:35;;;;;;;6.28;1.98;;;;;;;;;;7389681;19;20003;-75
2023/12/20 12:05:01;;;;;;;9.38;2.40;;;;;;;;;;7368867;19;20002;-75
2023/12/20 12:07:26;;;;;;;5.40;2.00;;;;;;;;;;7367070;19;20013;-75
2023/12/20 12:09:52;;;;;;;9.27;2.33;;;;;;;;;;7368005;19;20002;-75
2023/12/20 12:12:19;;;;;;;9.63;2.70;;;;;;;;;;7367981;19;20006;-76
2023/12/20 12:14:49;;;;;;;8.60;2.00;;;;;;;;;;7391141;19;20367;-75
2023/12/20 12:17:15;;;;;;;6.30;2.20;;;;;;;;;;7369045;19;20465;-75
2023/12/20 12:19:41;;;;;;;9.75;2.13;;;;;;;;;;7368295;19;20006;-75
2023/12/20 12:22:15;;;;;;;7.93;2.60;;;;;;;;;;7370428;19;20036;-75
2023/12/20 12:24:41;;;;;;;7.38;2.10;;;;;;;;;;7379105;19;20002;-75
2023/12/20 12:27:07;;;;;;;7.45;2.42;;;;;;;;;;7373340;19;20089;-75
2023/12/20 12:29:33;;;;;;;5.28;2.10;;;;;;;;;;7389717;19;20010;-75
2023/12/20 12:31:59;;;;;;;8.02;2.90;;;;;;;;;;7368176;19;20014;-75
2023/12/20 12:34:27;;;;;;;6.05;2.35;;;;;;;;;;7367685;19;20006;-76
2023/12/20 12:36:52;;;;;;;9.75;3.00;;;;;;;;;;7368655;19;20007;-75
2023/12/20 12:39:18;;;;;;;6.22;2.22;;;;;;;;;;7367880;19;20457;-75
2023/12/20 12:41:43;;;;;;;6.40;2.35;;;;;;;;;;7390135;19;20585;-76
2023/12/20 12:44:09;;;;;;;8.20;2.10;;;;;;;;;;7373667;19;20005;-76
2023/12/20 12:46:34;;;;;;;8.25;2.88;;;;;;;;;;7372118;19;20007;-76
2023/12/20 12:49:00;;;;;;;9.63;2.40;;;;;;;;;;7367288;19;20053;-76
2023/12/20 12:51:26;;;;;;;5.60;2.13;;;;;;;;;;7369575;19;20010;-76
2023/12/20 12:53:51;;;;;;;6.88;2.28;;;;;;;;;;7366411;19;20608;-76
2023/12/20 12:56:17;;;;;;;9.43;2.55;;;;;;;;;;7389280;19;20006;-75
2023/12/20 12:58:42;;;;;;;7.20;2.45;;;;;;;;;;7367589;19;20011;-76
2023/12/20 13:01:08;;;;;;;6.60;2.40;;;;;;;;;;7368160;19;20007;-75
2023/12/20 13:03:34;;;;;;;10.68;2.88;;;;;;;;;;7365910;19;20010;-77
2023/12/20 13:06:00;;;;;;;9.65;2.67;;;;;;;;;;7368457;19;20006;-75
2023/12/20 13:08:25;;;;;;;7.63;2.28;;;;;;;;;;7391331;19;20105;-75
2023/12/20 13:10:51;;;;;;;9.45;2.75;;;;;;;;;;7370328;19;20070;-75
2023/12/20 13:13:16;;;;;;;6.78;2.95;;;;;;;;;;7364892;19;20011;-75
2023/12/20 13:15:42;;;;;;;6.75;2.50;;;;;;;;;;7371698;19;20027;-75
2023/12/20 13:18:07;;;;;;;9.43;2.40;;;;;;;;;;7369217;19;20006;-74
2023/12/20 13:20:33;;;;;;;8.70;2.50;;;;;;;;;;7390401;19;20015;-75
2023/12/20 13:22:59;;;;;;;9.38;2.40;;;;;;;;;;7365676;19;20708;-75
2023/12/20 13:25:24;;;;;;;10.65;2.60;;;;;;;;;;7365156;19;20137;-74
2023/12/20 13:27:49;;;;;;;14.52;2.30;;;;;;;;;;7366934;19;20618;-75
2023/12/20 13:30:16;;;;;;;7.00;2.25;;;;;;;;;;7366578;19;20049;-75
2023/12/20 13:32:42;;;;;;;6.72;2.08;;;;;;;;;;7387755;19;20045;-76
2023/12/20 13:35:07;;;;;;;6.63;2.10;;;;;;;;;;7365155;19;20014;-76
2023/12/20 13:37:34;;;;;;;5.65;2.15;;;;;;;;;;7363707;19;20006;-75
2023/12/20 13:39:59;;;;;;;8.73;2.30;;;;;;;;;;7368992;19;20078;-75
2023/12/20 13:42:27;;;;;;;6.75;2.10;;;;;;;;;;7365858;19;20018;-75
2023/12/20 13:44:52;;;;;;;7.88;2.33;;;;;;;;;;7365860;19;19998;-75
2023/12/20 13:47:19;;;;;;;7.20;2.28;;;;;;;;;;7386551;19;20551;-75
2023/12/20 13:49:45;;;;;;;5.78;2.20;;;;;;;;;;7364366;19;20436;-75
2023/12/20 13:52:11;;;;;;;6.40;1.95;;;;;;;;;;7366519;19;20105;-75
2023/12/20 13:54:37;;;;;;;7.88;1.95;;;;;;;;;;7364572;19;20003;-75
2023/12/20 13:57:03;;;;;;;8.80;2.05;;;;;;;;;;7365653;19;20032;-75
2023/12/20 13:59:28;;;;;;;9.38;2.33;;;;;;;;;;7387437;19;20002;-74
2023/12/20 14:01:53;;;;;;;9.00;2.10;;;;;;;;;;7365170;19;20034;-74
2023/12/20 14:04:20;;;;;;;9.00;2.50;;;;;;;;;;7370545;19;20007;-76
2023/12/20 14:06:45;;;;;;;6.05;2.05;;;;;;;;;;7371287;19;20006;-76
2023/12/20 14:09:11;;;;;;;7.57;2.10;;;;;;;;;;7367837;19;20055;-76
2023/12/20 14:11:41;;;;;;;6.57;2.00;;;;;;;;;;7387142;19;20501;-76
2023/12/20 14:14:07;;;;;;;4.22;1.70;;;;;;;;;;7363209;19;20066;-76
2023/12/20 14:16:33;;;;;;;9.50;1.90;;;;;;;;;;7364612;19;20002;-75
2023/12/20 14:18:58;;;;;;;7.30;2.20;;;;;;;;;;7371883;19;20080;-76
2023/12/20 14:21:24;;;;;;;9.98;2.00;;;;;;;;;;7361694;19;20587;-75
2023/12/20 14:23:49;;;;;;;4.50;1.80;;;;;;;;;;7363459;19;20037;-75
2023/12/20 14:26:14;;;;;;;5.15;1.50;;;;;;;;;;7386722;19;19994;-76
2023/12/20 14:28:43;;;;;;;5.07;1.58;;;;;;;;;;7368369;19;20021;-75
2023/12/20 14:31:10;;;;;;;6.35;1.88;;;;;;;;;;7366018;19;20034;-76
2023/12/20 14:33:35;;;;;;;6.13;1.90;;;;;;;;;;7363283;19;20098;-75
2023/12/20 14:36:01;;;;;;;5.75;1.92;;;;;;;;;;7365863;19;20045;-75